EGPE

Inverness Airport

Inverness, United Kingdom
METAR EGPE 160620Z 24009KT 9999 FEW008 BKN019 15/14 Q1010
Observed Flight Rules
Jul-16 @ 06:20 UTC (23 minutes ago) Marginal Visual Flight Rules
Wind Visibility Clouds
240° at 9 knots 10,000+ meters
  • Few at 800' AGL
  • Broken at 1,900' AGL
Temperatures Readings
Current 15°C / 59°F
Dewpoint 14°C / 57°F
Humidity 94%
Altimeter 29.82" Hg
Pressure 1010 hPa
Elevation 9
METAR EGPE 160620Z 24009KT 9999 FEW008 BKN019 15/14 Q1010
Observed Flight Rules
Jul-16 @ 06:20 UTC
(23 minutes ago)
MVFR
Wind Visibility
240° at 9 knots 10,000+ meters
Clouds
  • Few at 800' AGL
  • Broken at 1,900' AGL
Temperature Dewpoint
15°C / 59°F 14°C / 57°F
Humidity Altimeter Pressure
94% 29.82" Hg 1010 hPa